• Join FlightAware (Why Join?)
  • Login
  • US Flag 
11:11PM EDT


 

Airport Tracker/Info


-or-


 

Live Flight TrackerFlight Track Log ✈ UAL582 ✈ 13-May-2013 ✈ KORD - KATL

Flight Track Log - Related Links

Times and Time Zones

All times are in EDT time to prevent confusion due to time zone crossing. See the UAL582 flight status page for this flight to view local times or setup timezone preferences in your user account.

Time Position Orientation Groundspeed Altitude Reporting Facility
EDT Latitude Longitude Course Direction KTS MPH feet Rate Location/Type
07:38PM 41.6607 -87.7561 180° South  Level Estimated
07:38PM 41.8053 -87.8844 174° South 248 285 7,200  Level Chicago Center
07:39PM 41.5536 -87.7062 176° South  Level Estimated
07:39PM 41.7256 -87.8822 179° South 285 328 10,200  Level Chicago Center
07:40PM 41.4466 -87.6565 180° South  Level Estimated
07:40PM 41.6347 -87.8808 179° South 319 367 13,300  Level Chicago Center
07:41PM 41.3395 -87.6070 180° South  Level Estimated
07:41PM 41.5328 -87.8794 179° South 360 414 15,000  Level Chicago Center
07:42PM 41.2324 -87.5576 180° South  Level Estimated
07:42PM 41.4200 -87.8778 179° South 394 453 17,700  Level Chicago Center
07:43PM 41.3047 -87.8875 184° South 407 468 19,900 1,980 Climbing Chicago Center
07:44PM 41.1856 -87.8914 181° South 424 488 21,800 1,980 Climbing Chicago Center
07:45PM 41.0358 -87.8867 179° South 446 513 24,100 1,920 Climbing Chicago Center
07:46PM 40.9081 -87.8803 178° South 456 525 25,800 1,560 Climbing Chicago Center
07:47PM 40.7772 -87.8486 170° South 478 550 27,400 1,440 Climbing Chicago Center
07:48PM 40.6450 -87.8125 168° South 488 562 28,800 1,380 Climbing Chicago Center
07:49PM 40.5089 -87.7756 168° South 499 574 30,300 1,440 Climbing Chicago Center
07:50PM 40.3694 -87.7428 170° South 509 586 31,600 1,440 Climbing Indianapolis Center
07:51PM 40.2292 -87.7039 168° South 516 594 33,100 1,260 Climbing Indianapolis Center
07:52PM 40.0861 -87.6678 169° South 525 604 34,300 1,200 Climbing Indianapolis Center
07:53PM 39.9442 -87.6294 168° South 524 603 35,600 1,200 Climbing Indianapolis Center
07:54PM 39.8017 -87.5925 169° South 525 604 36,800 660 Climbing Indianapolis Center
07:55PM 39.6308 -87.5472 168° South 525 604 37,000 60 Climbing Indianapolis Center
07:57PM 39.4889 -87.5103 169° South 525 604 37,000  Level Indianapolis Center
07:58PM 39.3458 -87.4742 169° South 527 606 37,000  Level Indianapolis Center
07:59PM 39.2047 -87.4378 169° South 522 601 37,000  Level Indianapolis Center
08:00PM 39.0383 -87.3944 169° South 526 605 37,000  Level Indianapolis Center
08:01PM 38.8947 -87.3586 169° South 523 602 37,000  Level Indianapolis Center
08:02PM 38.7522 -87.3231 169° South 522 601 37,000  Level Indianapolis Center
08:03PM 38.6094 -87.2864 169° South 524 603 37,000  Level Indianapolis Center
08:04PM 38.4669 -87.2503 169° South 522 601 37,000  Level Indianapolis Center
08:05PM 38.3239 -87.2158 169° South 521 600 37,000  Level Indianapolis Center
08:06PM 38.1617 -87.1744 169° South 520 598 37,000  Level Indianapolis Center
08:07PM 38.0206 -87.1394 169° South 520 598 37,000  Level Indianapolis Center
08:08PM 37.8783 -87.1039 169° South 520 598 37,000  Level Indianapolis Center
08:09PM 37.7369 -87.0689 169° South 518 596 37,000  Level Indianapolis Center
08:10PM 37.5947 -87.0333 169° South 517 595 37,000  Level Indianapolis Center
08:10PM 37.5264 -87.0178 170° South 516 594 37,000  Level Memphis Center
08:11PM 37.3881 -86.9844 169° South 516 594 37,000  Level Memphis Center
08:12PM 37.2475 -86.9486 169° South 516 594 37,000  Level Memphis Center
08:13PM 37.1028 -86.9158 170° South 521 600 37,000 -660 Level Memphis Center
08:14PM 36.9611 -86.9092 178° South 521 600 35,700 -1,020 Descending Memphis Center
08:15PM 36.8172 -86.9125 181° South 516 594 35,000 -360 Descending Memphis Center
08:16PM 36.6778 -86.9186 182° South 511 588 35,000  Level Memphis Center
08:17PM 36.5528 -86.9214 181° South 511 588 35,000  Level Memphis Center
08:18PM 36.3967 -86.9281 182° South 505 581 35,000  Level Memphis Center
08:19PM 36.2467 -86.9292 180° South 522 601 35,000  Level Memphis Center
08:20PM 36.1069 -86.9300 180° South 515 593 35,000  Level Memphis Center
08:21PM 35.9881 -86.8503 152° Southeast 477 549 35,000  Level Memphis Center
08:22PM 35.8911 -86.7392 137° Southeast 468 539 35,000 -120 Level Memphis Center
08:23PM 35.7897 -86.6258 138° Southeast 488 562 34,800 -1,560 Descending Memphis Center
08:25PM 35.6319 -86.4508 138° Southeast 481 554 31,000 -1,500 Descending Atlanta Center
08:26PM 35.5319 -86.3356 137° Southeast 486 559 31,000  Level Atlanta Center
08:27PM 35.4297 -86.2256 139° Southeast 486 559 31,000  Level Atlanta Center
08:28PM 35.3275 -86.1108 138° Southeast 493 567 31,000  Level Atlanta Center
08:29PM 35.2250 -85.9964 138° Southeast 499 574 31,000  Level Atlanta Center
08:30PM 35.1244 -85.8850 138° Southeast 499 574 31,000  Level Atlanta Center
08:31PM 35.0153 -85.7861 143° Southeast 499 574 31,000 -420 Level Atlanta Center
08:32PM 34.8997 -85.6950 147° Southeast 499 574 30,200 -960 Descending Atlanta Center
08:33PM 34.7819 -85.6017 147° Southeast 499 574 29,100 -1,800 Descending Atlanta Center
08:34PM 34.6661 -85.5111 147° Southeast 499 574 26,700 -2,400 Descending Atlanta Center
08:35PM 34.5544 -85.4258 148° Southeast 486 559 24,300 -2,400 Descending Atlanta Center
08:36PM 34.4447 -85.3411 148° Southeast 481 554 22,000 -2,280 Descending Atlanta Center
08:37PM 34.3433 -85.2589 146° Southeast 467 537 19,800 -2,160 Descending Atlanta Center
08:38PM 34.2397 -85.1794 148° Southeast 441 507 17,700 -2,220 Descending Atlanta Center
08:39PM 34.1425 -85.0956 144° Southeast 434 499 15,400 -1,860 Descending Atlanta Center
08:40PM 34.0639 -84.9942 133° Southeast 416 479 14,000 -1,440 Descending Atlanta Center
08:41PM 33.9853 -84.8931 133° Southeast 409 471 12,600 -1,020 Descending Atlanta Center
08:42PM 33.9192 -84.8097 134° Southeast 403 464 12,000 -300 Descending Atlanta Center
08:43PM 33.8528 -84.7242 133° Southeast 368 423 12,000  Level Atlanta Center
08:44PM 33.7906 -84.6461 134° Southeast 330 380 12,000  Level Atlanta Center
08:45PM 33.7325 -84.5633 130° Southeast 295 339 12,000 -480 Level Atlanta Center
08:46PM 33.7333 -84.4667 89° East 240 276 11,100 -960 Descending Atlanta TRACON
08:47PM 33.7333 -84.4000 90° East 238 274 10,100 -1,080 Descending Atlanta TRACON
08:48PM 33.7333 -84.3333 90° East 225 259 9,100 -1,200 Descending Atlanta TRACON
08:49PM 33.7333 -84.2500 90° East 212 244 7,800 -1,440 Descending Atlanta TRACON
08:50PM 33.7167 -84.1833 107° East 221 254 6,300 -1,380 Descending Atlanta TRACON
08:51PM 33.6667 -84.1833 180° South 200 230 5,200 -1,200 Descending Atlanta TRACON
08:52PM 33.6500 -84.2333 248° West 168 193 4,000 -1,140 Descending Atlanta TRACON
08:53PM 33.6500 -84.2833 270° West 161 185 3,000 -1,020 Descending Atlanta TRACON